createdAt,value
2022-09-06T00:02:20.346Z,1.48
2022-09-06T00:04:48.263Z,1.30
2022-09-06T00:07:15.536Z,1.75
2022-09-06T00:09:42.365Z,1.25
2022-09-06T00:12:09.214Z,1.27
2022-09-06T00:14:36.007Z,2.17
2022-09-06T00:17:02.846Z,1.50
2022-09-06T00:19:29.730Z,1.30
2022-09-06T00:21:56.595Z,1.52
2022-09-06T00:24:23.441Z,1.40
2022-09-06T00:26:50.341Z,1.40
2022-09-06T00:29:17.246Z,1.42
2022-09-06T00:31:44.142Z,1.52
2022-09-06T00:34:11.023Z,1.40
2022-09-06T00:36:37.874Z,1.50
2022-09-06T00:39:05.204Z,1.63
2022-09-06T00:41:32.102Z,1.50
2022-09-06T00:43:59.568Z,1.52
2022-09-06T00:46:30.138Z,1.92
2022-09-06T00:49:02.136Z,1.70
2022-09-06T00:51:30.797Z,2.40
2022-09-06T00:53:58.500Z,2.05
2022-09-06T00:56:26.291Z,1.67
2022-09-06T00:58:53.479Z,1.45
2022-09-06T01:01:20.451Z,1.25
2022-09-06T01:03:47.440Z,1.40
2022-09-06T01:06:17.218Z,1.33
2022-09-06T01:08:46.765Z,1.80
2022-09-06T01:11:31.906Z,1.60
2022-09-06T01:14:04.478Z,1.60
2022-09-06T01:16:56.182Z,1.20
2022-09-06T01:19:41.872Z,1.20
2022-09-06T01:22:11.540Z,1.67
2022-09-06T01:25:21.286Z,1.92
2022-09-06T01:28:10.962Z,1.65
2022-09-06T01:30:47.048Z,1.50
2022-09-06T01:33:27.795Z,2.00
2022-09-06T01:36:04.108Z,1.20
2022-09-06T01:38:31.288Z,1.90
2022-09-06T01:40:58.153Z,1.70
2022-09-06T01:43:32.011Z,1.67
2022-09-06T01:46:20.313Z,2.03
2022-09-06T01:49:03.791Z,1.75
2022-09-06T01:51:45.607Z,1.65
2022-09-06T01:54:41.103Z,2.10
2022-09-06T01:57:28.149Z,1.80
2022-09-06T02:00:09.275Z,1.90
2022-09-06T02:03:03.004Z,2.15
2022-09-06T02:05:36.837Z,2.22
2022-09-06T02:08:25.580Z,2.55
2022-09-06T02:10:56.385Z,1.83
2022-09-06T02:13:25.869Z,1.98
2022-09-06T02:15:57.949Z,2.17
2022-09-06T02:18:33.431Z,2.30
2022-09-06T02:21:03.438Z,2.35
2022-09-06T02:23:35.324Z,2.20
2022-09-06T02:26:09.410Z,2.28
2022-09-06T02:28:36.419Z,2.92
2022-09-06T02:31:10.946Z,2.75
2022-09-06T02:33:38.129Z,2.80
2022-09-06T02:36:08.640Z,2.92
2022-09-06T02:38:38.184Z,2.45
2022-09-06T02:41:06.468Z,3.05
2022-09-06T02:43:33.458Z,3.17
2022-09-06T02:46:00.491Z,3.10
2022-09-06T02:48:27.435Z,3.45
2022-09-06T02:50:54.331Z,4.22
2022-09-06T02:53:21.251Z,3.60
2022-09-06T02:55:48.757Z,3.33
2022-09-06T02:58:16.329Z,3.58
2022-09-06T03:00:44.081Z,3.85
2022-09-06T03:03:11.149Z,3.70
2022-09-06T03:05:38.299Z,3.83
2022-09-06T03:08:05.813Z,3.00
2022-09-06T03:10:32.880Z,2.90
2022-09-06T03:12:59.716Z,3.28
2022-09-06T03:15:26.616Z,3.05
2022-09-06T03:17:58.395Z,3.10
2022-09-06T03:20:26.027Z,3.17
2022-09-06T03:22:52.837Z,3.08
2022-09-06T03:25:19.645Z,2.72
2022-09-06T03:27:46.544Z,3.42
2022-09-06T03:30:13.628Z,3.03
2022-09-06T03:32:40.490Z,3.10
2022-09-06T03:35:07.854Z,3.08
2022-09-06T03:37:34.909Z,3.05
2022-09-06T03:40:02.277Z,3.72
2022-09-06T03:42:29.328Z,3.53
2022-09-06T03:44:56.196Z,3.88
2022-09-06T03:47:23.009Z,3.88
2022-09-06T03:49:50.884Z,3.20
2022-09-06T03:52:18.055Z,3.80
2022-09-06T03:54:45.056Z,3.10
2022-09-06T03:57:11.891Z,2.83
2022-09-06T03:59:38.761Z,2.88
2022-09-06T04:02:06.518Z,3.53
2022-09-06T04:04:33.494Z,3.00
2022-09-06T04:07:00.393Z,3.03
2022-09-06T04:09:27.320Z,3.67
2022-09-06T04:11:54.165Z,2.88
2022-09-06T04:14:20.977Z,3.10
2022-09-06T04:16:47.955Z,3.20
2022-09-06T04:19:14.834Z,3.00
2022-09-06T04:21:41.764Z,3.47
2022-09-06T04:24:08.596Z,3.30
2022-09-06T04:26:35.774Z,3.13
2022-09-06T04:29:02.568Z,4.20
2022-09-06T04:31:29.493Z,3.88
2022-09-06T04:33:56.360Z,4.28
2022-09-06T04:36:23.289Z,4.32
2022-09-06T04:38:50.172Z,4.32
2022-09-06T04:41:18.838Z,4.63
2022-09-06T04:43:45.715Z,5.45
2022-09-06T04:46:28.179Z,4.75
2022-09-06T04:48:56.477Z,4.30
2022-09-06T04:51:24.825Z,5.40
2022-09-06T04:53:52.406Z,6.38
2022-09-06T04:56:22.447Z,5.15
2022-09-06T04:58:50.674Z,5.43
2022-09-06T05:01:17.744Z,5.13
2022-09-06T05:03:44.599Z,6.18
2022-09-06T05:06:22.753Z,6.03
2022-09-06T05:08:50.464Z,5.38
2022-09-06T05:11:19.660Z,5.65
2022-09-06T05:13:47.580Z,5.88
2022-09-06T05:16:14.657Z,6.00
2022-09-06T05:18:41.656Z,6.18
2022-09-06T05:21:08.747Z,4.85
2022-09-06T05:23:35.899Z,5.53
2022-09-06T05:26:03.412Z,5.65
2022-09-06T05:28:30.229Z,5.38
2022-09-06T05:31:08.217Z,5.93
2022-09-06T05:33:35.098Z,5.55
2022-09-06T05:36:03.408Z,5.30
2022-09-06T05:38:31.091Z,4.63
2022-09-06T05:40:58.176Z,5.32
2022-09-06T05:43:25.004Z,5.72
2022-09-06T05:45:52.009Z,5.22
2022-09-06T05:48:19.392Z,4.85
2022-09-06T05:50:46.266Z,4.55
2022-09-06T05:53:13.206Z,3.95
2022-09-06T05:55:42.849Z,4.60
2022-09-06T05:58:10.019Z,4.00
2022-09-06T06:00:36.907Z,4.28
2022-09-06T06:03:03.708Z,4.30
2022-09-06T06:05:30.521Z,3.95
2022-09-06T06:07:59.009Z,3.40
2022-09-06T06:10:25.902Z,3.88
2022-09-06T06:12:52.714Z,3.95
2022-09-06T06:15:19.505Z,3.25
2022-09-06T06:17:46.299Z,3.30
2022-09-06T06:20:13.135Z,3.30
2022-09-06T06:22:40.123Z,3.67
2022-09-06T06:25:07.230Z,2.92
2022-09-06T06:27:35.360Z,2.70
2022-09-06T06:30:02.234Z,2.67
2022-09-06T06:32:31.598Z,2.28
2022-09-06T06:34:58.690Z,2.55
2022-09-06T06:37:25.543Z,2.00
2022-09-06T06:39:52.432Z,2.10
2022-09-06T06:42:19.296Z,1.75
2022-09-06T06:44:46.164Z,1.60
2022-09-06T06:47:13.039Z,2.10
2022-09-06T06:49:40.040Z,1.48
2022-09-06T06:52:07.101Z,1.60
2022-09-06T06:54:33.984Z,1.52
2022-09-06T06:57:00.955Z,1.85
2022-09-06T06:59:27.903Z,2.30
2022-09-06T07:01:54.911Z,1.80
2022-09-06T07:04:22.245Z,1.77
2022-09-06T07:12:26.263Z,1.70
2022-09-06T07:14:53.068Z,1.60
2022-09-06T07:17:19.869Z,1.88
2022-09-06T07:22:33.823Z,2.50
2022-09-06T07:25:00.688Z,2.50
2022-09-06T07:30:14.528Z,2.90
2022-09-06T07:32:41.408Z,3.08
2022-09-06T07:35:08.800Z,3.53
2022-09-06T07:37:35.746Z,3.50
2022-09-06T07:40:04.138Z,2.67
2022-09-06T07:42:36.222Z,2.35
2022-09-06T07:45:04.734Z,2.72
2022-09-06T07:53:13.087Z,3.33
2022-09-06T07:55:44.535Z,3.80
2022-09-06T07:58:11.424Z,4.07
2022-09-06T08:00:41.263Z,3.65
2022-09-06T08:03:08.528Z,4.28
2022-09-06T08:11:09.155Z,4.32
2022-09-06T08:13:37.095Z,4.15
2022-09-06T08:16:09.732Z,2.78
2022-09-06T08:18:37.431Z,2.60
2022-09-06T08:21:13.065Z,2.45
2022-09-06T08:26:09.639Z,2.63
2022-09-06T08:28:36.881Z,2.95
2022-09-06T08:31:22.257Z,2.38
2022-09-06T08:33:49.209Z,1.83
2022-09-06T08:36:16.256Z,1.60
2022-09-06T08:38:43.376Z,1.60
2022-09-06T08:41:14.944Z,1.80
2022-09-06T08:47:02.353Z,1.35
2022-09-06T08:49:32.609Z,1.80
2022-09-06T08:52:26.469Z,1.60
2022-09-06T08:55:12.322Z,2.38
2022-09-06T08:57:51.105Z,2.40
2022-09-06T09:00:19.735Z,1.83
2022-09-06T09:03:00.425Z,1.73
2022-09-06T09:05:31.364Z,1.65
2022-09-06T09:08:25.727Z,1.70
2022-09-06T09:11:01.025Z,1.90
2022-09-06T09:13:47.792Z,1.58
2022-09-06T09:16:15.675Z,1.00
2022-09-06T09:18:46.574Z,1.17
2022-09-06T09:21:15.613Z,1.33
2022-09-06T09:23:52.169Z,1.77
2022-09-06T09:26:20.083Z,3.28
2022-09-06T09:29:07.941Z,5.10
2022-09-06T09:31:51.339Z,6.05
2022-09-06T09:34:35.162Z,5.68
2022-09-06T09:40:41.756Z,5.15
2022-09-06T09:43:22.242Z,6.13
2022-09-06T09:46:08.131Z,5.43
2022-09-06T09:48:35.158Z,5.22
2022-09-06T09:51:26.621Z,4.47
2022-09-06T09:53:59.117Z,5.38
2022-09-06T09:56:39.735Z,6.25
2022-09-06T09:59:20.855Z,7.55
2022-09-06T10:01:48.171Z,9.80
2022-09-06T10:04:44.231Z,10.07
2022-09-06T10:09:48.602Z,10.10
2022-09-06T10:12:40.409Z,9.68
2022-09-06T10:15:42.186Z,11.30
2022-09-06T10:18:44.557Z,13.25
2022-09-06T10:21:18.983Z,15.52
2022-09-06T10:26:57.974Z,20.25
2022-09-06T10:29:44.316Z,21.73
2022-09-06T10:32:16.952Z,24.75
2022-09-06T10:35:30.838Z,25.30
2022-09-06T10:38:15.819Z,24.65
2022-09-06T10:41:12.878Z,25.80
2022-09-06T10:44:05.480Z,27.55
2022-09-06T10:46:35.288Z,25.95
2022-09-06T10:49:02.214Z,26.15
2022-09-06T10:51:39.848Z,27.45
2022-09-06T10:54:11.148Z,27.60
2022-09-06T10:56:50.163Z,28.27
2022-09-06T10:59:37.626Z,27.48
2022-09-06T11:02:39.369Z,27.02
2022-09-06T11:10:55.512Z,27.63
2022-09-06T11:13:27.947Z,29.17
2022-09-06T11:16:06.992Z,31.13
2022-09-06T11:18:55.078Z,23.98
2022-09-06T11:21:43.498Z,25.83
2022-09-06T11:24:10.309Z,29.27
2022-09-06T11:27:06.674Z,34.53
2022-09-06T11:29:35.657Z,43.45
2022-09-06T11:32:20.290Z,45.40
2022-09-06T11:34:56.829Z,51.92
2022-09-06T11:37:32.663Z,49.70
2022-09-06T11:40:27.098Z,53.95
2022-09-06T11:42:55.017Z,56.13
2022-09-06T11:45:40.684Z,58.97
2022-09-06T11:48:26.582Z,60.95
2022-09-06T11:50:59.509Z,58.35
2022-09-06T11:53:32.900Z,60.75
2022-09-06T11:56:03.269Z,49.55
2022-09-06T11:58:50.353Z,47.25
2022-09-06T12:01:37.448Z,42.63
2022-09-06T12:04:07.627Z,36.78
2022-09-06T12:07:08.728Z,34.25
2022-09-06T12:09:40.859Z,33.75
2022-09-06T12:12:11.459Z,34.97
2022-09-06T12:14:46.119Z,35.65
2022-09-06T12:17:12.924Z,37.20
2022-09-06T12:19:54.900Z,39.45
2022-09-06T12:22:27.949Z,38.85
2022-09-06T12:24:56.774Z,35.25
2022-09-06T12:27:26.917Z,33.20
2022-09-06T12:29:59.942Z,26.90
2022-09-06T12:32:46.981Z,23.25
2022-09-06T12:38:24.271Z,14.32
2022-09-06T12:40:56.405Z,14.30
2022-09-06T12:43:23.311Z,13.75
2022-09-06T12:45:52.392Z,15.27
2022-09-06T12:48:31.072Z,15.77
2022-09-06T12:51:07.061Z,17.13
2022-09-06T12:53:35.081Z,17.10
2022-09-06T12:56:06.477Z,17.08
2022-09-06T12:58:33.423Z,16.20
2022-09-06T13:01:22.932Z,16.50
2022-09-06T13:04:05.641Z,15.65
2022-09-06T13:06:39.592Z,17.00
2022-09-06T13:09:11.444Z,17.05
2022-09-06T13:11:43.627Z,19.83
2022-09-06T13:14:14.498Z,20.70
2022-09-06T13:16:48.547Z,24.25
2022-09-06T13:19:18.979Z,24.27
2022-09-06T13:21:46.858Z,25.45
2022-09-06T13:24:46.572Z,26.02
2022-09-06T13:27:25.317Z,27.95
2022-09-06T13:29:59.969Z,28.52
2022-09-06T13:32:30.128Z,28.02
2022-09-06T13:35:00.011Z,26.42
2022-09-06T13:37:32.603Z,25.27
2022-09-06T13:39:59.893Z,24.23
2022-09-06T13:42:38.155Z,20.27
2022-09-06T13:45:27.291Z,20.23
2022-09-06T13:48:03.382Z,19.77
2022-09-06T13:50:41.058Z,19.38
2022-09-06T13:53:07.887Z,17.58
2022-09-06T13:55:34.705Z,18.15
2022-09-06T13:58:01.494Z,15.93
2022-09-06T14:00:28.619Z,16.08
2022-09-06T14:02:55.654Z,15.75
2022-09-06T14:05:22.660Z,16.55
2022-09-06T14:07:49.494Z,16.52
2022-09-06T14:10:19.176Z,15.68
2022-09-06T14:12:45.955Z,15.38
2022-09-06T14:15:13.417Z,14.75
2022-09-06T14:17:40.242Z,15.50
2022-09-06T14:20:07.663Z,14.93
2022-09-06T14:22:34.504Z,14.77
2022-09-06T14:25:01.292Z,15.25
2022-09-06T14:27:28.117Z,14.10
2022-09-06T14:29:55.006Z,15.90
2022-09-06T14:32:22.718Z,15.68
2022-09-06T14:34:49.743Z,16.33
2022-09-06T14:37:16.572Z,16.95
2022-09-06T14:39:43.418Z,15.75
2022-09-06T14:42:10.273Z,15.73
2022-09-06T14:44:37.120Z,15.13
2022-09-06T14:47:04.243Z,14.68
2022-09-06T14:49:31.047Z,12.68
2022-09-06T14:51:57.964Z,14.60
2022-09-06T14:54:28.996Z,13.02
2022-09-06T14:56:56.419Z,10.70
2022-09-06T14:59:23.337Z,10.63
2022-09-06T15:01:50.201Z,10.43
2022-09-06T15:04:17.275Z,9.98
2022-09-06T15:06:47.267Z,10.65
2022-09-06T15:09:16.355Z,10.40
2022-09-06T15:11:46.526Z,9.68
2022-09-06T15:14:22.521Z,9.02
2022-09-06T15:16:56.085Z,10.23
2022-09-06T15:19:24.907Z,9.20
2022-09-06T15:21:52.028Z,9.00
2022-09-06T15:24:19.687Z,9.02
2022-09-06T15:26:47.149Z,9.38
2022-09-06T15:29:15.368Z,9.05
2022-09-06T15:31:42.997Z,9.82
2022-09-06T15:34:10.239Z,10.18
2022-09-06T15:36:37.771Z,9.35
2022-09-06T15:39:06.024Z,10.45
2022-09-06T15:41:36.068Z,9.75
2022-09-06T15:44:16.425Z,10.63
2022-09-06T15:46:46.914Z,11.43
2022-09-06T15:49:17.075Z,9.90
2022-09-06T15:51:45.063Z,10.63
2022-09-06T15:54:14.019Z,10.55
2022-09-06T15:56:41.372Z,10.57
2022-09-06T15:59:08.381Z,10.30
2022-09-06T16:01:35.709Z,10.88
2022-09-06T16:04:05.702Z,10.52
2022-09-06T16:06:37.805Z,10.68
2022-09-06T16:09:10.175Z,11.10
2022-09-06T16:11:37.199Z,10.32
2022-09-06T16:14:06.062Z,10.25
2022-09-06T16:16:33.206Z,10.23
2022-09-06T16:19:00.263Z,10.00
2022-09-06T16:21:30.438Z,10.25
2022-09-06T16:23:59.635Z,10.80
2022-09-06T16:26:34.239Z,10.07
2022-09-06T16:29:02.119Z,9.63
2022-09-06T16:31:29.801Z,8.45
2022-09-06T16:33:58.026Z,9.77
2022-09-06T16:36:26.329Z,9.38
2022-09-06T16:38:53.708Z,8.65
2022-09-06T16:41:26.923Z,9.70
2022-09-06T16:43:53.790Z,9.43
2022-09-06T16:46:22.917Z,10.48
2022-09-06T16:48:53.924Z,9.30
2022-09-06T16:51:23.002Z,10.18
2022-09-06T16:53:50.608Z,10.30
2022-09-06T16:56:22.609Z,10.07
2022-09-06T16:58:54.702Z,10.00
2022-09-06T17:01:22.497Z,9.93
2022-09-06T17:03:49.722Z,10.43
2022-09-06T17:06:17.406Z,9.13
2022-09-06T17:08:44.900Z,10.02
2022-09-06T17:11:14.786Z,10.35
2022-09-06T17:13:42.018Z,9.45
2022-09-06T17:16:27.729Z,9.65
2022-09-06T17:18:54.672Z,8.98
2022-09-06T17:21:23.137Z,9.75
2022-09-06T17:23:51.142Z,9.85
2022-09-06T17:26:21.213Z,9.68
2022-09-06T17:28:51.424Z,9.35
2022-09-06T17:31:23.617Z,10.45
2022-09-06T17:33:52.459Z,10.82
2022-09-06T17:36:25.774Z,11.07
2022-09-06T17:38:54.145Z,11.35
2022-09-06T17:41:24.294Z,11.10
2022-09-06T17:43:53.813Z,11.75
2022-09-06T17:46:25.261Z,9.77
2022-09-06T17:48:54.868Z,10.40
2022-09-06T17:51:22.193Z,9.90
2022-09-06T17:53:48.977Z,10.60
2022-09-06T17:56:16.986Z,11.30
2022-09-06T17:58:51.647Z,12.65
2022-09-06T18:01:18.594Z,12.05
2022-09-06T18:03:47.059Z,11.35
2022-09-06T18:06:15.929Z,10.68
2022-09-06T18:08:44.232Z,11.77
2022-09-06T18:11:25.734Z,10.07
2022-09-06T18:14:01.503Z,11.38
2022-09-06T18:16:29.637Z,9.93
2022-09-06T18:18:58.914Z,11.75
2022-09-06T18:21:27.356Z,12.35
2022-09-06T18:23:55.336Z,12.30
2022-09-06T18:26:22.935Z,12.60
2022-09-06T18:28:50.583Z,12.45
2022-09-06T18:31:19.745Z,10.98
2022-09-06T18:33:46.880Z,10.75
2022-09-06T18:36:17.886Z,10.10
2022-09-06T18:38:45.582Z,10.00
2022-09-06T18:41:34.583Z,10.13
2022-09-06T18:44:03.142Z,10.10
2022-09-06T18:46:31.497Z,9.93
2022-09-06T18:48:59.519Z,9.45
2022-09-06T18:51:27.208Z,10.32
2022-09-06T18:53:56.563Z,10.38
2022-09-06T18:56:24.330Z,10.95
2022-09-06T18:58:58.223Z,11.27
2022-09-06T19:01:26.969Z,9.85
2022-09-06T19:03:55.571Z,11.02
2022-09-06T19:06:22.543Z,10.45
2022-09-06T19:08:52.079Z,11.13
2022-09-06T19:11:20.517Z,11.25
2022-09-06T19:13:51.550Z,10.00
2022-09-06T19:16:19.525Z,10.05
2022-09-06T19:18:46.564Z,10.82
2022-09-06T19:21:17.495Z,11.60
2022-09-06T19:23:47.270Z,12.02
2022-09-06T19:26:17.880Z,11.82
2022-09-06T19:28:49.339Z,13.02
2022-09-06T19:31:16.790Z,12.93
2022-09-06T19:33:48.623Z,12.25
2022-09-06T19:36:17.111Z,14.95
2022-09-06T19:39:01.852Z,13.60
2022-09-06T19:41:30.581Z,13.30
2022-09-06T19:43:58.561Z,12.98
2022-09-06T19:46:25.826Z,11.90
2022-09-06T19:48:55.908Z,12.15
2022-09-06T19:51:23.196Z,13.48
2022-09-06T19:53:57.480Z,13.15
2022-09-06T19:56:26.767Z,15.32
2022-09-06T19:58:58.500Z,13.95
2022-09-06T20:01:29.620Z,14.55
2022-09-06T20:03:57.168Z,14.70
2022-09-06T20:06:24.456Z,15.38
2022-09-06T20:08:53.747Z,14.95
2022-09-06T20:11:21.914Z,15.40
2022-09-06T20:13:49.294Z,16.60
2022-09-06T20:16:17.444Z,40.75
2022-09-06T20:18:45.686Z,25.15
2022-09-06T20:21:17.729Z,18.02
2022-09-06T20:23:52.388Z,14.63
2022-09-06T20:26:22.888Z,16.95
2022-09-06T20:28:58.540Z,17.75
2022-09-06T20:31:27.958Z,18.75
2022-09-06T20:33:55.041Z,17.65
2022-09-06T20:36:21.847Z,18.58
2022-09-06T20:38:49.844Z,18.38
2022-09-06T20:41:19.801Z,19.25
2022-09-06T20:43:51.478Z,19.67
2022-09-06T20:46:20.097Z,19.55
2022-09-06T20:48:47.452Z,17.50
2022-09-06T20:51:18.955Z,17.98
2022-09-06T20:53:57.144Z,17.45
2022-09-06T20:56:26.784Z,17.90
2022-09-06T20:59:00.734Z,15.73
2022-09-06T21:01:31.162Z,15.20
2022-09-06T21:03:59.621Z,15.88
2022-09-06T21:06:28.710Z,14.45
2022-09-06T21:08:56.664Z,15.18
2022-09-06T21:11:24.001Z,15.63
2022-09-06T21:13:57.903Z,17.17
2022-09-06T21:16:27.547Z,15.65
2022-09-06T21:18:56.289Z,15.55
2022-09-06T21:21:24.799Z,15.88
2022-09-06T21:23:51.836Z,14.63
2022-09-06T21:26:19.001Z,15.40
2022-09-06T21:28:47.649Z,16.23
2022-09-06T21:31:26.670Z,14.27
2022-09-06T21:33:55.927Z,15.85
2022-09-06T21:36:31.555Z,14.93
2022-09-06T21:39:04.281Z,14.55
2022-09-06T21:41:31.864Z,15.02
2022-09-06T21:44:00.590Z,13.63
2022-09-06T21:46:33.122Z,11.30
2022-09-06T21:49:07.106Z,11.32
2022-09-06T21:51:34.513Z,10.90
2022-09-06T21:54:05.424Z,11.05
2022-09-06T21:56:34.168Z,11.25
2022-09-06T21:59:01.570Z,10.93
2022-09-06T22:01:31.721Z,11.45
2022-09-06T22:03:59.840Z,11.25
2022-09-06T22:06:28.954Z,11.93
2022-09-06T22:08:57.668Z,13.15
2022-09-06T22:11:27.576Z,14.60
2022-09-06T22:13:57.791Z,11.77
2022-09-06T22:16:24.892Z,14.38
2022-09-06T22:18:51.923Z,13.30
2022-09-06T22:21:21.175Z,14.05
2022-09-06T22:23:52.984Z,14.80
2022-09-06T22:26:20.750Z,15.23
2022-09-06T22:28:48.636Z,14.15
2022-09-06T22:31:15.536Z,16.02
2022-09-06T22:33:42.501Z,15.52
2022-09-06T22:36:10.350Z,13.43
2022-09-06T22:38:37.538Z,14.52
2022-09-06T22:41:04.867Z,14.60
2022-09-06T22:43:32.144Z,16.42
2022-09-06T22:46:17.422Z,15.48
2022-09-06T22:48:44.358Z,15.50
2022-09-06T22:51:11.713Z,16.60
2022-09-06T22:53:39.178Z,17.73
2022-09-06T22:56:06.516Z,16.85
2022-09-06T22:58:34.850Z,17.23
2022-09-06T23:01:11.865Z,17.73
2022-09-06T23:03:39.212Z,18.33
2022-09-06T23:06:06.100Z,18.42
2022-09-06T23:08:35.406Z,17.30
2022-09-06T23:11:11.077Z,17.75
2022-09-06T23:13:38.646Z,19.17
2022-09-06T23:16:07.263Z,19.67
2022-09-06T23:18:34.653Z,17.77
2022-09-06T23:21:06.492Z,19.02
2022-09-06T23:23:33.660Z,19.38
2022-09-06T23:26:08.241Z,19.27
2022-09-06T23:28:36.077Z,20.00
2022-09-06T23:31:08.170Z,20.10
2022-09-06T23:33:36.277Z,21.70
2022-09-06T23:36:08.613Z,21.42
2022-09-06T23:38:37.188Z,23.83
2022-09-06T23:41:04.486Z,23.05
2022-09-06T23:43:31.533Z,23.63
2022-09-06T23:45:58.764Z,24.02
2022-09-06T23:48:25.966Z,23.05
2022-09-06T23:50:52.892Z,23.95
2022-09-06T23:53:20.605Z,24.45
2022-09-06T23:55:47.493Z,24.08
2022-09-06T23:58:14.340Z,23.63
